Flight Track Log - Related Links

Times and Time Zones

All times are in EDT time to prevent confusion due to time zone crossing. See the WSG1475 flight status page for this flight to view local times or setup timezone preferences in your user account.

Time Position Orientation Groundspeed Altitude Reporting Facility
EDT Latitude Longitude Course Direction KTS MPH feet Rate Location/Type
Tue 04:16:15 PM 52.3167 -88.6333 180° South 190 219 14,800  Level Winnipeg Center
Tue 04:17:15 PM 52.2667 -88.6333 189° South 200 230 16,100 1,150 Climbing Winnipeg Center
Tue 04:18:15 PM 52.2000 -88.6500 189° South 220 253 17,100 1,100 Climbing Winnipeg Center
Tue 04:19:15 PM 52.1333 -88.6667 180° South 240 276 18,300 1,150 Climbing Winnipeg Center
Tue 04:20:15 PM 52.0667 -88.6667 189° South 240 276 19,400 950 Climbing Winnipeg Center
Tue 04:21:15 PM 52.0000 -88.6833 187° South 240 276 20,200 726 Climbing Winnipeg Center
Tue 04:23:25 PM 51.8333 -88.7167 187° South 260 299 21,700 789 Climbing Winnipeg Center
Tue 04:24:25 PM 51.7500 -88.7333 189° South 280 322 22,700 950 Climbing Winnipeg Center
Tue 04:25:25 PM 51.6833 -88.7500 187° South 280 322 23,600 600 Climbing Winnipeg Center
Tue 04:26:25 PM 51.6000 -88.7667 187° South 290 334 23,900 150 Climbing Winnipeg Center
Tue 04:27:25 PM 51.5167 -88.7833 186° South 300 345 23,900 50 Level Winnipeg Center
Tue 04:28:25 PM 51.4167 -88.8000 187° South 320 368 24,000 50 Climbing Winnipeg Center
Tue 04:29:25 PM 51.3333 -88.8167 186° South 330 380 24,000  Level Winnipeg Center
Tue 04:30:25 PM 51.2333 -88.8333 186° South 330 380 24,000  Level Winnipeg Center
Tue 04:31:25 PM 51.1333 -88.8500 187° South 330 380 24,000  Level Winnipeg Center
Tue 04:32:25 PM 51.0500 -88.8667 186° South 330 380 24,000  Level Winnipeg Center
Tue 04:33:25 PM 50.9500 -88.8833 187° South 340 391 24,000  Level Winnipeg Center
Tue 04:34:25 PM 50.8667 -88.9000 186° South 340 391 24,000  Level Winnipeg Center
Tue 04:35:25 PM 50.7667 -88.9167 180° South 330 380 24,000  Level Winnipeg Center
Tue 04:36:25 PM 50.6833 -88.9167 192° South 340 391 24,000  Level Winnipeg Center
Tue 04:37:25 PM 50.5833 -88.9500 186° South 340 391 24,000  Level Winnipeg Center
Tue 04:38:25 PM 50.4833 -88.9667 186° South 340 391 24,000  Level Winnipeg Center
Tue 04:39:25 PM 50.3833 -88.9833 180° South 340 391 24,000  Level Winnipeg Center
Tue 04:40:25 PM 50.3000 -88.9833 187° South 340 391 24,000  Level Winnipeg Center
Tue 04:41:25 PM 50.2167 -89.0000 180° South 340 391 24,000  Level Winnipeg Center
Tue 04:42:25 PM 50.1167 -89.0000 186° South 340 391 24,000  Level Winnipeg Center
Tue 04:43:25 PM 50.0167 -89.0167 186° South 340 391 24,000  Level Winnipeg Center
Tue 04:44:25 PM 49.9167 -89.0333 187° South 340 391 24,000  Level Winnipeg Center
Tue 04:45:25 PM 49.8333 -89.0500 186° South 340 391 24,000  Level Winnipeg Center
Tue 04:46:25 PM 49.7333 -89.0667 186° South 340 391 24,000  Level Winnipeg Center
Tue 04:47:25 PM 49.6333 -89.0833 187° South 340 391 24,000  Level Winnipeg Center
Tue 04:48:25 PM 49.5500 -89.1000 186° South 340 391 24,000 -400 Level Winnipeg Center
Tue 04:49:25 PM 49.4500 -89.1167 180° South 350 403 23,200 -900 Descending Winnipeg Center
Tue 04:50:25 PM 49.3500 -89.1167 191° South 370 426 22,200 -950 Descending Winnipeg Center
Tue 04:51:25 PM 49.2333 -89.1500 186° South 370 426 21,300 -900 Descending Winnipeg Center
Tue 04:52:25 PM 49.1333 -89.1667 180° South 360 414 20,400 -950 Descending Winnipeg Center
Tue 04:53:25 PM 49.0500 -89.1667 191° South 360 414 19,400 -1,350 Descending Winnipeg Center
Tue 04:54:25 PM 48.9333 -89.2000 180° South 360 414 17,700 -2,000 Descending Winnipeg Center
Tue 04:55:25 PM 48.8500 -89.2000 186° South 340 391 15,400 -2,450 Descending Winnipeg Center
Tue 04:56:25 PM 48.7500 -89.2167 188° South 330 380 12,800 -2,550 Descending Winnipeg Center
Tue 04:57:25 PM 48.6667 -89.2333 189° South 310 357 10,300 -2,550 Descending Winnipeg Center
Tue 04:58:25 PM 48.6000 -89.2500 188° South 280 322 7,700 -2,400 Descending Winnipeg Center
Tue 04:59:25 PM 48.5167 -89.2667 214° Southwest 260 299 5,500 -1,850 Descending Winnipeg Center
Tue 05:00:25 PM 48.4833 -89.3000 180° South 240 276 4,000 -950 Descending Winnipeg Center
Tue 05:01:25 PM 48.4333 -89.3000 214° Southwest 200 230 3,600 -550 Descending Winnipeg Center
Tue 05:02:25 PM 48.3833 -89.3500 192° South 190 219 2,900 -1,000 Descending Winnipeg Center
Tue 05:03:25 PM 48.3333 -89.3667 63° Northeast 180 207 1,600 -1,050 Descending Winnipeg Center
Tue 05:04:25 PM 48.3500 -89.3167 63° Northeast 120 138 800 -800 Descending Winnipeg Center

Login

Don't have an account? Register now (free) for customized features, flight alerts, and more!